Time;durP1;ratioP1;P1;durP2;ratioP2;P2;SDS_P1;SDS_P2;PMS_P1;PMS_P2;Temp;Humidity;BMP_temperature;BMP_pressure;BME280_temperature;BME280_humidity;BME280_pressure;Samples;Min_cycle;Max_cycle;Signal;HPM_P1;HPM_P2
2023/04/01 00:00:53;;;;;;;;;2.00;1.25;;;;;12.21;57.28;99823.72;5080091;28;45393;-65
2023/04/01 00:03:20;;;;;;;;;0.50;0.50;;;;;12.17;57.13;99830.88;5079868;28;45545;-66
2023/04/01 00:05:45;;;;;;;;;2.00;1.00;;;;;12.17;57.20;99824.75;5061524;28;46330;-66
2023/04/01 00:08:11;;;;;;;;;2.25;1.75;;;;;12.17;57.37;99819.50;5079561;28;45247;-66
2023/04/01 00:10:37;;;;;;;;;3.50;1.25;;;;;12.22;57.46;99830.72;5079970;28;45406;-66
2023/04/01 00:13:02;;;;;;;;;1.75;1.75;;;;;12.18;57.47;99837.03;5079540;28;45304;-66
2023/04/01 00:15:27;;;;;;;;;7.00;3.75;;;;;12.18;57.79;99826.47;5061509;28;45519;-66
2023/04/01 00:17:54;;;;;;;;;3.50;2.75;;;;;12.18;57.52;99823.84;5079630;28;45422;-66
2023/04/01 00:20:19;;;;;;;;;2.75;1.25;;;;;12.18;57.51;99829.13;5061683;28;45321;-66
2023/04/01 00:22:46;;;;;;;;;3.00;1.00;;;;;12.14;57.44;99836.25;5064749;28;45446;-66
2023/04/01 00:25:11;;;;;;;;;1.75;1.00;;;;;12.19;57.40;99833.47;5076670;28;46649;-66
2023/04/01 00:27:37;;;;;;;;;3.50;2.75;;;;;12.16;57.58;99830.94;5061238;28;45362;-66
2023/04/01 00:30:02;;;;;;;;;1.00;0.25;;;;;12.19;57.50;99823.78;5079665;28;45387;-66
2023/04/01 00:32:28;;;;;;;;;1.75;0.50;;;;;12.20;57.39;99837.84;5079599;28;45483;-66
2023/04/01 00:34:54;;;;;;;;;2.75;1.50;;;;;12.21;57.59;99831.63;5075544;28;46011;-66
2023/04/01 00:37:20;;;;;;;;;2.25;1.00;;;;;12.19;57.63;99831.69;5044188;28;47655;-66
2023/04/01 00:39:46;;;;;;;;;3.50;1.00;;;;;12.19;57.68;99841.38;5062610;28;45454;-66
2023/04/01 00:42:12;;;;;;;;;2.00;0.00;;;;;12.19;57.77;99829.06;5044251;28;45396;-66
2023/04/01 00:44:38;;;;;;;;;2.75;2.75;;;;;12.17;57.66;99861.63;5062375;28;46271;-66
2023/04/01 00:47:04;;;;;;;;;4.75;2.50;;;;;12.14;57.96;99828.38;5062629;28;45375;-66
2023/04/01 00:49:34;;;;;;;;;2.50;1.25;;;;;12.12;58.04;99845.13;5062263;28;45340;-66
2023/04/01 00:52:03;;;;;;;;;2.75;2.00;;;;;12.12;58.02;99829.34;5062642;28;45253;-66
2023/04/01 00:54:30;;;;;;;;;6.25;3.00;;;;;12.08;57.96;99861.97;5062042;28;45343;-66
2023/04/01 00:57:01;;;;;;;;;1.00;1.00;;;;;12.08;57.84;99831.22;5062060;28;45328;-66
2023/04/01 00:59:33;;;;;;;;;3.50;2.00;;;;;12.10;57.76;99833.78;5061894;28;45348;-66
2023/04/01 01:02:00;;;;;;;;;3.25;1.75;;;;;12.10;57.98;99828.50;5044060;28;45489;-66
2023/04/01 01:04:31;;;;;;;;;5.00;1.50;;;;;12.12;57.90;99829.34;5062049;28;45304;-66
2023/04/01 01:07:12;;;;;;;;;3.25;1.50;;;;;12.11;58.02;99840.78;5062075;28;45352;-66
2023/04/01 01:09:45;;;;;;;;;1.00;1.00;;;;;12.09;57.80;99825.03;5062155;28;45534;-66
2023/04/01 01:12:40;;;;;;;;;2.25;0.75;;;;;12.10;57.94;99825.88;5061834;28;45403;-66
2023/04/01 01:15:16;;;;;;;;;4.00;0.75;;;;;12.06;57.98;99813.75;5062040;28;45258;-66
2023/04/01 01:18:23;;;;;;;;;4.75;2.00;;;;;12.08;57.93;99823.31;5051815;28;45924;-66
2023/04/01 01:21:45;;;;;;;;;3.25;1.75;;;;;12.05;58.25;99822.56;5081817;28;45323;-66
2023/04/01 01:24:55;;;;;;;;;2.75;2.25;;;;;12.01;58.13;99820.03;5028608;28;45539;-66
2023/04/01 01:27:21;;;;;;;;;6.25;2.00;;;;;12.02;58.10;99824.41;5014074;28;46684;-66
2023/04/01 01:29:59;;;;;;;;;1.50;0.25;;;;;11.98;58.44;99808.75;5051821;28;45482;-66
2023/04/01 01:32:33;;;;;;;;;1.75;1.00;;;;;12.00;58.13;99825.38;5061901;28;45376;-66
2023/04/01 01:35:24;;;;;;;;;1.25;1.25;;;;;12.02;58.01;99824.41;5066826;28;45331;-66
2023/04/01 01:37:56;;;;;;;;;0.25;0.25;;;;;12.02;58.21;99832.31;5043480;28;46103;-66
2023/04/01 01:40:24;;;;;;;;;1.00;0.00;;;;;11.98;58.37;99824.56;5061055;28;45432;-66
2023/04/01 01:42:54;;;;;;;;;0.00;0.00;;;;;11.99;58.30;99824.50;5061539;28;45366;-66
2023/04/01 01:45:23;;;;;;;;;2.25;0.25;;;;;11.98;58.19;99842.97;5061577;28;45245;-66
2023/04/01 01:47:50;;;;;;;;;1.00;0.50;;;;;11.93;58.43;99822.03;5060193;28;45423;-66
2023/04/01 01:50:17;;;;;;;;;1.50;0.00;;;;;12.01;58.44;99830.56;5061408;28;45167;-66
2023/04/01 01:52:42;;;;;;;;;2.00;0.50;;;;;12.01;58.36;99829.69;5043381;28;45358;-66
2023/04/01 01:55:28;;;;;;;;;0.75;0.00;;;;;11.99;58.58;99842.91;5061556;28;45486;-66
2023/04/01 01:57:57;;;;;;;;;2.00;0.00;;;;;11.97;58.80;99838.63;5061015;28;45265;-66
2023/04/01 02:00:23;;;;;;;;;1.75;0.00;;;;;11.96;58.70;99852.69;5061264;28;45379;-67
2023/04/01 02:02:50;;;;;;;;;3.25;2.00;;;;;11.89;58.84;99832.75;5043500;28;45396;-67
2023/04/01 02:05:20;;;;;;;;;2.00;0.50;;;;;11.90;59.00;99861.66;5061283;28;45350;-67
2023/04/01 02:08:00;;;;;;;;;4.00;1.00;;;;;11.92;58.99;99836.09;5061178;28;45654;-66
2023/04/01 02:10:28;;;;;;;;;1.75;1.50;;;;;11.88;58.88;99850.28;5043010;28;45483;-66
2023/04/01 02:12:59;;;;;;;;;1.00;1.00;;;;;11.84;58.98;99838.16;5026392;28;45234;-66
2023/04/01 02:15:30;;;;;;;;;0.25;0.00;;;;;11.83;59.02;99858.34;5061052;28;45322;-67
2023/04/01 02:17:56;;;;;;;;;3.50;1.75;;;;;11.76;59.15;99848.06;5042891;28;46962;-67
2023/04/01 02:20:23;;;;;;;;;1.00;0.00;;;;;11.74;59.31;99834.97;5061057;28;45319;-67
2023/04/01 02:22:54;;;;;;;;;0.00;0.00;;;;;11.76;58.92;99850.69;5061167;28;45372;-66
2023/04/01 02:25:25;;;;;;;;;0.25;0.25;;;;;11.73;58.99;99840.28;5060900;28;45449;-66
2023/04/01 02:27:52;;;;;;;;;1.00;0.00;;;;;11.74;59.01;99853.38;5062644;28;45470;-66
2023/04/01 02:30:18;;;;;;;;;2.00;0.75;;;;;11.76;59.01;99845.44;5081125;28;45240;-66
2023/04/01 02:32:45;;;;;;;;;0.50;0.00;;;;;11.72;59.05;99844.66;5063074;28;45319;-66
2023/04/01 02:35:14;;;;;;;;;2.25;0.75;;;;;11.74;58.80;99847.28;5074771;28;45244;-66
2023/04/01 02:37:42;;;;;;;;;1.00;1.00;;;;;11.72;58.94;99855.19;5060853;28;46415;-66
2023/04/01 02:40:09;;;;;;;;;1.50;1.00;;;;;11.74;58.85;99860.44;5060596;28;45379;-66
2023/04/01 02:42:35;;;;;;;;;2.50;1.00;;;;;11.79;58.81;99864.63;5060641;28;45460;-66
2023/04/01 02:45:00;;;;;;;;;0.00;0.00;;;;;11.80;58.64;99868.13;5060777;28;45478;-66
2023/04/01 02:47:26;;;;;;;;;4.00;2.00;;;;;11.80;58.68;99866.34;5042525;28;46097;-66
2023/04/01 02:49:57;;;;;;;;;1.00;1.00;;;;;11.82;58.54;99861.03;5060546;28;45436;-66
2023/04/01 02:52:23;;;;;;;;;3.00;0.75;;;;;11.81;58.57;99857.53;5043675;28;45359;-66
2023/04/01 02:54:48;;;;;;;;;1.00;1.00;;;;;11.83;58.38;99858.34;5060576;28;45341;-66
2023/04/01 02:57:13;;;;;;;;;1.00;1.00;;;;;11.85;58.39;99859.16;5059910;28;53035;-66
2023/04/01 02:59:39;;;;;;;;;2.75;1.00;;;;;11.87;58.41;99851.19;5060391;28;45205;-66
2023/04/01 03:02:04;;;;;;;;;0.75;0.00;;;;;11.92;58.22;99880.00;5042509;28;45427;-66
2023/04/01 03:04:29;;;;;;;;;2.00;1.00;;;;;11.89;58.25;99867.81;5060813;28;45146;-66
2023/04/01 03:06:55;;;;;;;;;0.00;0.00;;;;;11.92;58.32;99882.66;5060074;28;48886;-67
2023/04/01 03:09:20;;;;;;;;;1.25;0.25;;;;;11.95;58.30;99857.09;5060444;28;45155;-66
2023/04/01 03:11:45;;;;;;;;;0.75;0.75;;;;;11.94;58.21;99876.41;5060280;28;45509;-66
2023/04/01 03:14:11;;;;;;;;;0.00;0.00;;;;;11.98;58.15;99867.53;5060180;28;53953;-66
2023/04/01 03:16:36;;;;;;;;;0.00;0.00;;;;;11.99;58.08;99878.94;5042189;28;47256;-66
2023/04/01 03:19:02;;;;;;;;;1.50;0.00;;;;;12.00;57.93;99888.56;5042201;28;45697;-66
2023/04/01 03:21:27;;;;;;;;;0.00;0.00;;;;;11.99;58.08;99868.41;5059701;28;45431;-66
2023/04/01 03:23:52;;;;;;;;;1.00;0.00;;;;;12.03;57.95;99870.84;5066746;28;45304;-66
2023/04/01 03:26:18;;;;;;;;;0.00;0.00;;;;;12.06;57.82;99869.03;5079915;28;45389;-65
2023/04/01 03:28:44;;;;;;;;;2.00;1.00;;;;;12.06;57.98;99872.53;5080236;28;45331;-65
2023/04/01 03:31:10;;;;;;;;;2.75;1.00;;;;;12.07;57.66;99892.69;5079483;28;45345;-65
2023/04/01 03:33:35;;;;;;;;;1.25;0.00;;;;;12.05;57.84;99881.38;5080261;28;45434;-66
2023/04/01 03:36:01;;;;;;;;;1.75;0.00;;;;;12.09;57.72;99885.59;5066975;28;46316;-65
2023/04/01 03:38:26;;;;;;;;;0.75;0.75;;;;;12.09;57.69;99906.66;5059788;28;45315;-66
2023/04/01 03:40:51;;;;;;;;;0.25;0.25;;;;;12.08;57.82;99897.03;5059901;28;45321;-66
2023/04/01 03:43:17;;;;;;;;;2.50;1.00;;;;;12.09;57.83;99888.25;5059661;28;48531;-66
2023/04/01 03:45:47;;;;;;;;;1.00;1.00;;;;;12.07;57.95;99897.94;5059851;28;45315;-66
2023/04/01 03:48:12;;;;;;;;;1.00;0.50;;;;;12.11;57.81;99910.13;5059716;28;45324;-65
2023/04/01 03:50:37;;;;;;;;;0.50;0.25;;;;;12.10;57.83;99894.34;5059856;28;45320;-66
2023/04/01 03:53:03;;;;;;;;;4.25;0.50;;;;;12.11;57.79;99893.44;5041577;28;45350;-66
2023/04/01 03:55:28;;;;;;;;;2.00;0.00;;;;;12.10;57.80;99904.88;5066741;28;45403;-66
2023/04/01 03:57:53;;;;;;;;;4.00;1.00;;;;;12.13;57.57;99913.56;5067088;28;45372;-65
2023/04/01 04:00:19;;;;;;;;;2.00;0.75;;;;;12.11;57.64;99885.53;5049106;28;47420;-66
2023/04/01 04:02:44;;;;;;;;;0.75;0.75;;;;;12.15;57.44;99884.53;5047980;28;45337;-66
2023/04/01 04:05:10;;;;;;;;;3.00;0.25;;;;;12.13;57.66;99891.63;5058911;28;45416;-66
2023/04/01 04:07:35;;;;;;;;;2.00;1.25;;;;;12.13;57.49;99894.28;5059482;28;45333;-65
2023/04/01 04:10:00;;;;;;;;;0.00;0.00;;;;;12.13;57.42;99907.44;5059702;28;45340;-66
2023/04/01 04:12:26;;;;;;;;;2.50;1.25;;;;;12.09;57.56;99901.41;5062579;28;45325;-66
2023/04/01 04:14:51;;;;;;;;;1.00;1.00;;;;;12.13;57.63;99904.81;5045099;28;46013;-66
2023/04/01 04:17:16;;;;;;;;;2.00;0.00;;;;;12.07;57.51;99897.94;5063013;28;45508;-66
2023/04/01 04:19:42;;;;;;;;;2.00;0.00;;;;;12.11;57.46;99899.59;5063185;28;45497;-66
2023/04/01 04:22:07;;;;;;;;;0.25;0.25;;;;;12.10;57.50;99911.03;5062995;28;45248;-66
2023/04/01 04:24:36;;;;;;;;;0.00;0.00;;;;;12.12;57.47;99916.25;5074928;28;45241;-66
2023/04/01 04:27:02;;;;;;;;;1.00;0.25;;;;;12.09;57.38;99911.06;5083055;28;45351;-66
2023/04/01 04:29:27;;;;;;;;;5.00;1.00;;;;;12.12;57.55;99916.25;5083412;28;45295;-66
2023/04/01 04:31:53;;;;;;;;;3.00;2.00;;;;;12.15;57.31;99914.38;5083047;28;45691;-66
2023/04/01 04:34:18;;;;;;;;;4.00;0.25;;;;;12.13;57.49;99905.66;5083132;28;48506;-65
2023/04/01 04:36:44;;;;;;;;;3.00;1.00;;;;;12.13;57.45;99923.25;5045813;28;45465;-66
2023/04/01 04:39:09;;;;;;;;;1.00;1.00;;;;;12.13;57.55;99917.97;5044884;28;45462;-66
2023/04/01 04:41:37;;;;;;;;;2.00;1.00;;;;;12.12;57.46;99932.03;5062435;28;45298;-65
2023/04/01 04:44:02;;;;;;;;;2.50;0.50;;;;;12.14;57.46;99924.97;5062783;28;45289;-66
2023/04/01 04:46:28;;;;;;;;;1.25;1.25;;;;;12.14;57.33;99928.44;5062290;28;45206;-66
2023/04/01 04:48:53;;;;;;;;;2.00;2.00;;;;;12.14;57.32;99938.13;5062734;28;45560;-66
2023/04/01 04:51:20;;;;;;;;;1.50;1.00;;;;;12.15;57.48;99929.28;5062339;28;46375;-66
2023/04/01 04:53:46;;;;;;;;;2.00;0.00;;;;;12.13;57.48;99945.16;5062355;28;45268;-66
2023/04/01 04:56:12;;;;;;;;;1.00;1.00;;;;;12.15;57.33;99939.81;5073623;28;45556;-68
2023/04/01 04:58:39;;;;;;;;;2.25;1.00;;;;;12.16;57.27;99931.03;5066212;28;45637;-66
2023/04/01 05:01:10;;;;;;;;;3.75;2.00;;;;;12.16;57.23;99933.66;5044479;28;45428;-66
2023/04/01 05:03:35;;;;;;;;;1.25;1.00;;;;;12.18;57.58;99937.09;5062319;28;46164;-66
2023/04/01 05:06:01;;;;;;;;;2.75;1.00;;;;;12.17;57.35;99932.75;5043957;28;45412;-66
2023/04/01 05:08:26;;;;;;;;;2.00;0.00;;;;;12.16;57.21;99933.66;5044413;28;45728;-66
2023/04/01 05:10:51;;;;;;;;;0.25;0.25;;;;;12.20;57.29;99930.03;5043850;28;45547;-66
2023/04/01 05:13:17;;;;;;;;;2.75;0.75;;;;;12.22;57.16;99949.25;5060668;28;45392;-66
2023/04/01 05:15:42;;;;;;;;;0.00;0.00;;;;;12.23;57.05;99944.88;5064059;28;45352;-66
2023/04/01 05:18:07;;;;;;;;;0.00;0.00;;;;;12.22;57.06;99936.09;5082391;28;45363;-66
2023/04/01 05:20:33;;;;;;;;;1.00;1.00;;;;;12.18;57.33;99953.75;5082194;28;45359;-66
2023/04/01 05:22:59;;;;;;;;;1.25;1.00;;;;;12.19;57.19;99955.50;5067449;28;53875;-67
2023/04/01 05:25:25;;;;;;;;;2.00;0.00;;;;;12.18;57.19;99947.66;5061526;28;45423;-66
2023/04/01 05:27:50;;;;;;;;;0.75;0.00;;;;;12.20;57.11;99945.84;5069463;27;45420;-66
2023/04/01 05:30:16;;;;;;;;;2.75;0.50;;;;;12.18;57.21;99979.25;5061824;28;45328;-66
2023/04/01 05:32:42;;;;;;;;;2.25;0.25;;;;;12.16;57.13;99958.25;5061846;28;47185;-66
2023/04/01 05:35:08;;;;;;;;;1.00;0.00;;;;;12.16;57.08;99966.13;5066606;28;45198;-67
2023/04/01 05:37:37;;;;;;;;;0.50;0.00;;;;;12.13;57.21;99968.84;5043649;28;45459;-67
2023/04/01 05:40:04;;;;;;;;;0.75;0.00;;;;;12.13;57.11;99971.50;5061559;28;45634;-66
2023/04/01 05:42:29;;;;;;;;;2.50;0.00;;;;;12.15;57.04;99980.22;5043171;28;46143;-66
2023/04/01 05:44:55;;;;;;;;;1.00;1.00;;;;;12.14;57.06;99972.38;5061591;28;45328;-66
2023/04/01 05:47:21;;;;;;;;;0.00;0.00;;;;;12.10;57.25;99981.25;5062223;28;45944;-66
2023/04/01 05:49:47;;;;;;;;;1.50;0.00;;;;;12.12;56.80;99990.84;5061363;28;45734;-66
2023/04/01 05:52:13;;;;;;;;;0.00;0.00;;;;;12.11;57.11;99983.00;5061388;28;46384;-67
2023/04/01 05:54:38;;;;;;;;;1.50;0.00;;;;;12.10;57.10;99981.25;5061523;28;45224;-66
2023/04/01 05:57:03;;;;;;;;;0.50;0.00;;;;;12.12;57.16;100000.53;5047604;28;45238;-66
2023/04/01 05:59:31;;;;;;;;;1.00;1.00;;;;;12.09;57.06;100004.13;5059961;28;45257;-67
2023/04/01 06:01:56;;;;;;;;;0.00;0.00;;;;;12.14;56.86;99982.91;5043760;28;45301;-66
2023/04/01 06:04:22;;;;;;;;;1.75;0.00;;;;;12.08;56.94;99998.91;5061097;28;45407;-66
2023/04/01 06:06:47;;;;;;;;;0.50;0.50;;;;;12.09;56.96;100003.22;5042858;28;51821;-66
2023/04/01 06:09:32;;;;;;;;;2.00;0.50;;;;;12.03;57.09;99994.63;5061145;28;45446;-67
2023/04/01 06:12:03;;;;;;;;;2.00;0.25;;;;;12.03;57.12;100014.84;5060991;28;46205;-66
2023/04/01 06:14:49;;;;;;;;;1.75;0.75;;;;;12.05;57.00;100018.31;5061261;28;45247;-66
2023/04/01 06:17:44;;;;;;;;;2.00;1.00;;;;;12.03;57.11;100020.97;5061106;28;45241;-67
2023/04/01 06:20:43;;;;;;;;;1.00;1.00;;;;;12.01;57.02;100017.53;5060854;28;45236;-66
2023/04/01 06:23:27;;;;;;;;;0.25;0.25;;;;;12.01;57.11;100021.91;5061260;28;45288;-66
2023/04/01 06:26:20;;;;;;;;;0.00;0.00;;;;;12.00;56.97;100038.66;5080803;28;45355;-65
2023/04/01 06:29:03;;;;;;;;;1.50;0.00;;;;;12.02;56.83;100026.28;5068613;28;45396;-66
2023/04/01 06:31:35;;;;;;;;;1.00;1.00;;;;;12.00;57.17;100023.69;5042500;28;45345;-66
2023/04/01 06:34:06;;;;;;;;;0.50;0.00;;;;;12.02;57.02;100037.69;5060609;28;46425;-66
2023/04/01 06:36:59;;;;;;;;;0.75;0.75;;;;;12.05;56.92;100026.19;5062531;28;45234;-65
2023/04/01 06:39:44;;;;;;;;;1.00;0.00;;;;;12.03;56.95;100038.53;5060629;28;45325;-66
2023/04/01 06:42:33;;;;;;;;;2.50;1.00;;;;;12.07;57.05;100039.31;5060269;28;45335;-66
2023/04/01 06:45:13;;;;;;;;;2.00;1.00;;;;;12.08;56.68;100033.13;5051900;28;46303;-66
2023/04/01 06:47:52;;;;;;;;;0.00;0.00;;;;;12.09;56.62;100038.34;5060216;28;45228;-66
2023/04/01 06:50:41;;;;;;;;;1.25;1.00;;;;;12.11;56.62;100046.19;5049053;28;45348;-66
2023/04/01 06:53:35;;;;;;;;;0.00;0.00;;;;;12.12;56.70;100047.94;5080731;28;45317;-66
2023/04/01 06:56:10;;;;;;;;;4.00;1.00;;;;;12.17;56.64;100051.28;5071616;27;45420;-66
2023/04/01 06:58:41;;;;;;;;;2.75;1.00;;;;;12.17;56.60;100046.00;5050326;28;45366;-65
2023/04/01 07:01:13;;;;;;;;;0.25;0.25;;;;;12.21;56.51;100042.34;5060303;28;45501;-65
2023/04/01 07:03:53;;;;;;;;;1.50;1.50;;;;;12.18;56.65;100047.72;5060040;28;45460;-66
2023/04/01 07:06:36;;;;;;;;;1.50;0.00;;;;;12.18;56.45;100048.59;5068175;28;45610;-66
2023/04/01 07:09:09;;;;;;;;;2.00;0.00;;;;;12.21;56.48;100046.78;5061912;28;45372;-66
2023/04/01 07:11:37;;;;;;;;;0.00;0.00;;;;;12.21;56.67;100047.63;5072442;28;45248;-66
2023/04/01 07:14:06;;;;;;;;;0.50;0.50;;;;;12.25;56.50;100054.53;5080388;28;45426;-68
2023/04/01 07:16:31;;;;;;;;;3.00;0.75;;;;;12.26;56.01;100045.69;5080431;28;45347;-68
2023/04/01 07:19:01;;;;;;;;;1.50;0.25;;;;;12.28;56.37;100050.94;5061995;28;45322;-72
2023/04/01 07:21:36;;;;;;;;;0.25;0.00;;;;;12.23;56.34;100047.59;5058998;28;45272;-68
2023/04/01 07:24:08;;;;;;;;;1.50;0.50;;;;;12.28;56.40;100057.06;5067693;28;45271;-71
2023/04/01 07:26:34;;;;;;;;;1.50;0.50;;;;;12.27;56.68;100055.34;5075106;28;46213;-70
2023/04/01 07:28:59;;;;;;;;;1.75;1.00;;;;;12.31;55.90;100042.91;5068019;27;45231;-70
2023/04/01 07:31:34;;;;;;;;;0.00;0.00;;;;;12.31;56.30;100059.63;5060224;28;45370;-69
2023/04/01 07:34:08;;;;;;;;;0.00;0.00;;;;;12.28;56.57;100057.06;5061083;28;45235;-71
2023/04/01 07:36:48;;;;;;;;;0.75;0.00;;;;;12.28;56.46;100066.75;5058516;28;46684;-69
2023/04/01 07:39:25;;;;;;;;;3.00;1.50;;;;;12.30;56.67;100060.50;5059748;28;45401;-66
2023/04/01 07:41:51;;;;;;;;;1.50;1.50;;;;;12.29;56.81;100065.81;5067176;28;45318;-66
2023/04/01 07:44:32;;;;;;;;;0.00;0.00;;;;;12.33;56.53;100072.72;5061819;28;45554;-67
2023/04/01 07:47:05;;;;;;;;;0.25;0.25;;;;;12.31;56.55;100083.31;5082530;28;46063;-65
2023/04/01 07:49:49;;;;;;;;;2.00;1.00;;;;;12.33;56.39;100068.31;5083501;28;45293;-69
2023/04/01 07:52:31;;;;;;;;;1.50;1.00;;;;;12.41;56.33;100075.97;5083730;28;45489;-66
2023/04/01 07:55:23;;;;;;;;;0.25;0.00;;;;;12.39;56.15;100083.06;5065224;28;45621;-71
2023/04/01 07:58:01;;;;;;;;;0.00;0.00;;;;;12.46;56.15;100078.47;5070995;28;45391;-70
2023/04/01 08:00:47;;;;;;;;;1.25;0.25;;;;;12.48;56.27;100082.75;5045172;28;46383;-69
2023/04/01 08:03:18;;;;;;;;;1.25;1.25;;;;;12.52;56.14;100088.81;5072644;28;45249;-67
2023/04/01 08:05:56;;;;;;;;;2.00;2.00;;;;;12.49;56.13;100071.31;5082859;28;45470;-66
2023/04/01 08:08:46;;;;;;;;;3.25;0.25;;;;;12.52;56.32;100083.53;5083288;28;45406;-64
2023/04/01 08:11:12;;;;;;;;;1.00;0.75;;;;;12.56;56.16;100082.50;5083133;28;45361;-66
2023/04/01 08:13:57;;;;;;;;;1.00;1.00;;;;;12.56;56.05;100100.97;5083451;28;45264;-65
2023/04/01 08:16:32;;;;;;;;;2.50;1.00;;;;;12.60;55.96;100092.06;5083420;28;45418;-65
2023/04/01 08:19:27;;;;;;;;;0.75;0.00;;;;;12.58;56.02;100085.09;5082987;28;45615;-65
2023/04/01 08:21:57;;;;;;;;;0.00;0.00;;;;;12.61;56.06;100088.50;5075994;28;45308;-66
2023/04/01 08:24:43;;;;;;;;;1.00;0.00;;;;;12.67;56.01;100093.56;5055687;28;45454;-67
2023/04/01 08:27:20;;;;;;;;;3.00;1.00;;;;;12.68;56.01;100076.84;5074666;28;45296;-68
2023/04/01 08:30:23;;;;;;;;;0.00;0.00;;;;;12.76;55.63;100088.91;5049877;28;47775;-69
2023/04/01 08:33:12;;;;;;;;;0.00;0.00;;;;;12.76;55.62;100131.94;5062778;28;45364;-65
2023/04/01 08:35:46;;;;;;;;;2.75;0.00;;;;;12.77;55.68;100093.28;5067757;28;45355;-65
2023/04/01 08:38:17;;;;;;;;;2.50;0.75;;;;;12.81;55.66;100102.78;5062574;28;45165;-65
2023/04/01 08:40:58;;;;;;;;;0.00;0.00;;;;;12.83;55.03;100093.06;5044079;28;48289;-65
2023/04/01 08:43:36;;;;;;;;;0.00;0.00;;;;;12.87;55.12;100101.72;5044522;28;45390;-65
2023/04/01 08:46:10;;;;;;;;;1.50;1.00;;;;;12.87;55.12;100105.22;5062663;28;45324;-64
2023/04/01 08:48:57;;;;;;;;;0.00;0.00;;;;;12.92;54.96;100113.84;5044316;28;45390;-63
2023/04/01 08:51:52;;;;;;;;;0.50;0.50;;;;;12.95;54.99;100099.69;5062167;28;45532;-65
2023/04/01 08:54:29;;;;;;;;;1.75;1.00;;;;;12.99;54.98;100098.66;5044134;28;45289;-63
2023/04/01 08:57:08;;;;;;;;;2.00;0.50;;;;;13.03;55.07;100099.41;5065230;28;45276;-65
2023/04/01 08:59:39;;;;;;;;;2.00;0.50;;;;;13.10;54.70;100104.41;5074299;28;45731;-68
2023/04/01 09:02:40;;;;;;;;;0.00;0.00;;;;;13.14;54.71;100092.00;5062333;28;45477;-69
2023/04/01 09:05:36;;;;;;;;;0.50;0.50;;;;;13.17;54.79;100103.31;5062387;28;45320;-66
2023/04/01 09:08:11;;;;;;;;;2.00;0.00;;;;;13.21;54.88;100106.69;5071684;28;45412;-66
2023/04/01 09:10:54;;;;;;;;;1.50;0.50;;;;;13.28;54.36;100100.28;5078403;28;46328;-65
2023/04/01 09:13:41;;;;;;;;;0.50;0.50;;;;;13.32;54.54;100098.41;5071018;28;46249;-66
2023/04/01 09:16:28;;;;;;;;;1.00;1.00;;;;;13.35;54.25;100094.81;5049400;28;45641;-66
2023/04/01 09:19:26;;;;;;;;;0.00;0.00;;;;;13.40;54.30;100100.81;5062096;28;45543;-68
2023/04/01 09:22:36;;;;;;;;;0.00;0.00;;;;;13.45;54.28;100126.09;5041141;28;45645;-74
2023/04/01 09:25:32;;;;;;;;;0.00;0.00;;;;;13.53;54.07;100095.94;5034440;28;45367;-75
2023/04/01 09:28:34;;;;;;;;;1.50;0.25;;;;;13.54;54.34;100101.16;5061626;28;45362;-76
2023/04/01 09:31:12;;;;;;;;;0.00;0.00;;;;;13.63;54.29;100097.31;5040673;28;45451;-75
2023/04/01 09:33:58;;;;;;;;;2.00;1.00;;;;;13.68;54.09;100124.41;5068668;28;45482;-67
2023/04/01 09:36:39;;;;;;;;;0.00;0.00;;;;;13.74;53.92;100118.03;5061534;28;45267;-67
2023/04/01 09:39:23;;;;;;;;;0.00;0.00;;;;;13.81;54.36;100109.84;5061305;28;45364;-69
2023/04/01 09:42:05;;;;;;;;;1.00;1.00;;;;;13.84;54.12;100123.84;5068590;28;45446;-66
2023/04/01 09:44:46;;;;;;;;;0.00;0.00;;;;;13.89;53.86;100122.75;5081870;28;45280;-66
2023/04/01 09:47:42;;;;;;;;;1.50;0.00;;;;;13.95;53.80;100124.31;5081534;28;46221;-67
2023/04/01 09:50:17;;;;;;;;;5.00;2.25;;;;;13.97;53.63;100136.53;5081560;28;45386;-65
2023/04/01 09:52:56;;;;;;;;;3.25;3.25;;;;;13.97;53.74;100120.69;5063426;28;45285;-72
2023/04/01 09:55:45;;;;;;;;;2.75;2.75;;;;;14.01;53.53;100121.41;5063003;28;45264;-71
2023/04/01 09:58:13;;;;;;;;;1.00;1.00;;;;;14.05;53.62;100149.44;5064537;28;45613;-71
2023/04/01 10:01:20;;;;;;;;;1.00;0.00;;;;;14.10;53.57;100125.47;5068619;28;45433;-68
2023/04/01 10:04:10;;;;;;;;;0.75;0.25;;;;;14.13;53.43;100135.94;5070165;28;45378;-69
2023/04/01 10:06:58;;;;;;;;;0.00;0.00;;;;;14.14;53.44;100138.50;5053760;28;45325;-67
2023/04/01 10:09:58;;;;;;;;;1.25;1.25;;;;;14.19;52.84;100137.47;5053033;28;46380;-68
2023/04/01 10:12:48;;;;;;;;;1.00;1.00;;;;;14.19;52.92;100137.47;5070105;28;45331;-67
2023/04/01 10:15:56;;;;;;;;;0.75;0.00;;;;;14.16;52.52;100135.81;5071055;28;45319;-68
2023/04/01 10:18:59;;;;;;;;;1.25;0.00;;;;;14.19;52.31;100142.75;5054315;28;45784;-68
2023/04/01 10:21:37;;;;;;;;;1.50;0.00;;;;;14.22;52.03;100132.06;5052781;28;47724;-68
2023/04/01 10:24:15;;;;;;;;;0.00;0.00;;;;;14.23;52.50;100124.09;5070510;28;45426;-66
2023/04/01 10:27:15;;;;;;;;;0.00;0.00;;;;;14.29;52.00;100131.78;5048996;28;45357;-64
2023/04/01 10:29:55;;;;;;;;;1.00;1.00;;;;;14.36;51.72;100137.66;5070690;28;45625;-66
2023/04/01 10:32:55;;;;;;;;;0.75;0.75;;;;;14.44;51.71;100126.81;5070679;28;46285;-66
2023/04/01 10:35:48;;;;;;;;;0.00;0.00;;;;;14.54;51.98;100119.34;5070180;28;45382;-67
2023/04/01 10:38:22;;;;;;;;;0.00;0.00;;;;;14.68;52.12;100121.47;5069296;28;45284;-65
2023/04/01 10:41:28;;;;;;;;;2.00;0.00;;;;;14.82;51.19;100129.69;5068499;28;45495;-66
2023/04/01 10:44:19;;;;;;;;;1.75;0.00;;;;;14.93;51.18;100108.06;5065132;28;45465;-65
2023/04/01 10:47:27;;;;;;;;;0.25;0.00;;;;;15.11;50.90;100117.03;5060507;28;45486;-66
2023/04/01 10:50:15;;;;;;;;;12.75;5.75;;;;;15.24;51.34;100118.22;5051892;28;45500;-70
2023/04/01 10:52:40;;;;;;;;;0.50;0.00;;;;;15.42;50.46;100102.44;5060388;28;45696;-71
2023/04/01 10:55:52;;;;;;;;;1.25;0.00;;;;;15.58;51.11;100106.13;5042191;28;47315;-69
2023/04/01 10:58:37;;;;;;;;;0.75;0.00;;;;;15.80;51.06;100121.06;5042888;27;45725;-71
2023/04/01 11:01:20;;;;;;;;;3.25;0.00;;;;;15.99;51.06;100128.19;5061814;27;45576;-69
2023/04/01 11:04:03;;;;;;;;;0.00;0.00;;;;;16.18;50.95;100121.06;5060218;28;45301;-68
2023/04/01 11:06:32;;;;;;;;;3.50;2.50;;;;;16.36;50.55;100118.47;5060210;28;46346;-69
2023/04/01 11:09:19;;;;;;;;;0.25;0.25;;;;;16.51;50.65;100122.19;5060131;28;45402;-68
2023/04/01 11:12:06;;;;;;;;;0.25;0.00;;;;;16.62;50.51;100111.06;5060143;28;45434;-72
2023/04/01 11:15:01;;;;;;;;;0.75;0.75;;;;;16.67;50.22;100124.94;5042024;28;46116;-67
2023/04/01 11:17:45;;;;;;;;;0.00;0.00;;;;;16.73;50.41;100109.59;5060164;28;45515;-66
2023/04/01 11:20:43;;;;;;;;;0.75;0.75;;;;;16.76;50.33;100118.34;5060114;28;45435;-67
2023/04/01 11:23:34;;;;;;;;;0.25;0.25;;;;;16.78;49.87;100097.88;5036441;28;45458;-70
2023/04/01 11:26:07;;;;;;;;;1.75;0.00;;;;;16.84;49.54;100103.75;5080216;28;45224;-65
2023/04/01 11:28:44;;;;;;;;;0.75;0.75;;;;;16.89;49.50;100103.50;5068221;28;46454;-62
2023/04/01 11:31:29;;;;;;;;;1.50;0.00;;;;;16.90;49.28;100106.09;5059847;28;45339;-69
2023/04/01 11:34:32;;;;;;;;;0.00;0.00;;;;;16.93;49.64;100104.22;5050915;28;45340;-67
2023/04/01 11:37:08;;;;;;;;;0.00;0.00;;;;;16.98;49.28;100110.16;5059237;28;45490;-66
2023/04/01 11:40:16;;;;;;;;;0.50;0.00;;;;;17.06;49.02;100100.03;5040841;28;45440;-67
2023/04/01 11:43:25;;;;;;;;;1.00;0.00;;;;;17.12;49.26;100102.38;5059579;28;45296;-67
2023/04/01 11:46:15;;;;;;;;;3.75;0.25;;;;;17.19;48.95;100098.47;5044018;28;45356;-67
2023/04/01 11:49:11;;;;;;;;;0.00;0.00;;;;;17.27;48.88;100107.81;5059563;28;45439;-66
2023/04/01 11:52:10;;;;;;;;;0.00;0.00;;;;;17.32;48.74;100101.31;5067773;28;46732;-68
2023/04/01 11:55:00;;;;;;;;;1.00;1.00;;;;;17.37;48.48;100111.69;5079799;28;45401;-67
2023/04/01 11:57:53;;;;;;;;;0.75;0.00;;;;;17.39;48.28;100104.50;5072132;28;45880;-67
2023/04/01 12:00:56;;;;;;;;;0.00;0.00;;;;;17.40;48.18;100110.69;5066366;27;45380;-68
2023/04/01 12:03:38;;;;;;;;;0.00;0.00;;;;;17.32;48.20;100108.41;5071245;28;46307;-70
2023/04/01 12:06:40;;;;;;;;;2.00;1.00;;;;;17.32;48.26;100111.06;5079581;28;45326;-78
2023/04/01 12:09:49;;;;;;;;;1.50;1.00;;;;;17.26;47.95;100117.56;5079469;28;45236;-69